<?xml version="1.0" encoding="UTF-8" standalone="no" ?>
<gpx xmlns="http://www.topografix.com/GPX/1/1" xmlns:xsi="http://www.w3.org/2001/XMLSchema-instance" xsi:schemaLocation="http://www.topografix.com/GPX/1/1 http://www.topografix.com/GPX/1/1/gpx.xsd" version="1.1" creator="VisuGPX - https://www.visugpx.com">
  <metadata>
    <name>skirando portiolette</name>
    <desc><![CDATA[mauvais départ (par la station puis le couloir combal), la neige ne porte pas en crampons, trop raide à ski, on galère un peu. en haut, on redescend vers le vallon de Rouchouse. puis on remonte tranquillement au soleil vers le col de Portiollette (ca botte un peu selon). arrivée au col à 11h, trop tard pour le tour initialement prévu. demi tour, ca descend bien jusqu'à 1800m, ensuite à pied/ski. avec les amis.]]></desc>
  </metadata>
  <wpt lat="44.4515" lon="6.84626">
    <ele>1670</ele>
    <name><![CDATA[0000226]]></name>
    <type><![CDATA[Point de départ]]></type>
  </wpt>
  <wpt lat="44.45162" lon="6.84638">
    <ele>1676.87</ele>
    <name><![CDATA[0000228]]></name>
    <desc><![CDATA[<p><br /><h3>Nom: Segment: 1</h3><br />Heure de départ: 04/17/2018 06:12<br/>Heure d'arrivée: 04/17/2018 12:22<br/>Distance: 11,9km (06:09)<br/>Temps déplacement: 02:53<br/>Vitesse moyenne: 1,93 km/h<br/>Vitesse moyenne mouv.: 4,05 km/h<br/>Vitesse Max.: 34,39 km/h<br/>Altitude minimale: 1669 m<br/>Altitude maximale: 2687 m<br/>Vitesse de montée: 253 m/h<br/>Vitesse de descente: -611,5 m/h<br/>Gain d'altitude: 1104 m<br/>Perte d'altitude: -1097 m<br/>Temps de montée: 04:21<br/>Temps de descente: 01:47<br/></p>]]></desc>
    <type><![CDATA[Point d'arrivée]]></type>
  </wpt>
  <wpt lat="44.45748" lon="6.85286">
    <ele>1838.22</ele>
    <name><![CDATA[déchaussage]]></name>
    <type><![CDATA[Jalon]]></type>
  </wpt>
  <trk>
    <name><![CDATA[2018-04-17 06:12 col portiolette]]></name>
    <trkseg>
      <trkpt lat="44.4515" lon="6.84626">
        <ele>1670</ele>
        <time>2018-04-17T04:12:45.000Z</time>
      </trkpt>
      <trkpt lat="44.4513" lon="6.84622">
        <ele>1678.34</ele>
        <time>2018-04-17T04:14:38.000Z</time>
      </trkpt>
      <trkpt lat="44.45112" lon="6.84619">
        <ele>1677.33</ele>
        <time>2018-04-17T04:15:02.000Z</time>
      </trkpt>
      <trkpt lat="44.45097" lon="6.84641">
        <ele>1677.25</ele>
        <time>2018-04-17T04:15:22.000Z</time>
      </trkpt>
      <trkpt lat="44.45084" lon="6.84664">
        <ele>1677.04</ele>
        <time>2018-04-17T04:15:42.000Z</time>
      </trkpt>
      <trkpt lat="44.45071" lon="6.84682">
        <ele>1677.13</ele>
        <time>2018-04-17T04:15:58.000Z</time>
      </trkpt>
      <trkpt lat="44.45061" lon="6.84704">
        <ele>1677.94</ele>
        <time>2018-04-17T04:16:18.000Z</time>
      </trkpt>
      <trkpt lat="44.45056" lon="6.84729">
        <ele>1678.95</ele>
        <time>2018-04-17T04:16:38.000Z</time>
      </trkpt>
      <trkpt lat="44.45049" lon="6.84757">
        <ele>1679.52</ele>
        <time>2018-04-17T04:16:58.000Z</time>
      </trkpt>
      <trkpt lat="44.45049" lon="6.84785">
        <ele>1679.62</ele>
        <time>2018-04-17T04:17:22.000Z</time>
      </trkpt>
      <trkpt lat="44.4505" lon="6.84811">
        <ele>1679.61</ele>
        <time>2018-04-17T04:17:42.000Z</time>
      </trkpt>
      <trkpt lat="44.4507" lon="6.84816">
        <ele>1683.85</ele>
        <time>2018-04-17T04:21:34.000Z</time>
      </trkpt>
      <trkpt lat="44.45084" lon="6.84834">
        <ele>1685.69</ele>
        <time>2018-04-17T04:21:58.000Z</time>
      </trkpt>
      <trkpt lat="44.45086" lon="6.84862">
        <ele>1686.66</ele>
        <time>2018-04-17T04:22:30.000Z</time>
      </trkpt>
      <trkpt lat="44.45093" lon="6.84887">
        <ele>1687.06</ele>
        <time>2018-04-17T04:22:58.000Z</time>
      </trkpt>
      <trkpt lat="44.45101" lon="6.84913">
        <ele>1688.27</ele>
        <time>2018-04-17T04:23:30.000Z</time>
      </trkpt>
      <trkpt lat="44.45107" lon="6.8494">
        <ele>1691.05</ele>
        <time>2018-04-17T04:24:02.000Z</time>
      </trkpt>
      <trkpt lat="44.45112" lon="6.84966">
        <ele>1694.82</ele>
        <time>2018-04-17T04:24:30.000Z</time>
      </trkpt>
      <trkpt lat="44.45119" lon="6.84989">
        <ele>1699.54</ele>
        <time>2018-04-17T04:24:58.000Z</time>
      </trkpt>
      <trkpt lat="44.45126" lon="6.85013">
        <ele>1703.18</ele>
        <time>2018-04-17T04:25:26.000Z</time>
      </trkpt>
      <trkpt lat="44.45132" lon="6.85038">
        <ele>1705.1</ele>
        <time>2018-04-17T04:26:02.000Z</time>
      </trkpt>
      <trkpt lat="44.4514" lon="6.85062">
        <ele>1706.55</ele>
        <time>2018-04-17T04:26:38.000Z</time>
      </trkpt>
      <trkpt lat="44.45153" lon="6.85087">
        <ele>1709.17</ele>
        <time>2018-04-17T04:27:14.000Z</time>
      </trkpt>
      <trkpt lat="44.45164" lon="6.85109">
        <ele>1712.72</ele>
        <time>2018-04-17T04:27:46.000Z</time>
      </trkpt>
      <trkpt lat="44.45174" lon="6.85133">
        <ele>1718.41</ele>
        <time>2018-04-17T04:28:26.000Z</time>
      </trkpt>
      <trkpt lat="44.45184" lon="6.85155">
        <ele>1721.55</ele>
        <time>2018-04-17T04:28:54.000Z</time>
      </trkpt>
      <trkpt lat="44.45197" lon="6.85176">
        <ele>1727.35</ele>
        <time>2018-04-17T04:29:22.000Z</time>
      </trkpt>
      <trkpt lat="44.452" lon="6.85206">
        <ele>1733.3</ele>
        <time>2018-04-17T04:29:58.000Z</time>
      </trkpt>
      <trkpt lat="44.452" lon="6.85236">
        <ele>1739.05</ele>
        <time>2018-04-17T04:30:30.000Z</time>
      </trkpt>
      <trkpt lat="44.45208" lon="6.85258">
        <ele>1744.55</ele>
        <time>2018-04-17T04:31:05.000Z</time>
      </trkpt>
      <trkpt lat="44.45225" lon="6.85271">
        <ele>1747.05</ele>
        <time>2018-04-17T04:31:33.000Z</time>
      </trkpt>
      <trkpt lat="44.45244" lon="6.85284">
        <ele>1755.01</ele>
        <time>2018-04-17T04:32:25.000Z</time>
      </trkpt>
      <trkpt lat="44.45261" lon="6.85292">
        <ele>1757.93</ele>
        <time>2018-04-17T04:32:53.000Z</time>
      </trkpt>
      <trkpt lat="44.45277" lon="6.85305">
        <ele>1760.54</ele>
        <time>2018-04-17T04:33:25.000Z</time>
      </trkpt>
      <trkpt lat="44.45296" lon="6.85311">
        <ele>1764.21</ele>
        <time>2018-04-17T04:33:49.000Z</time>
      </trkpt>
      <trkpt lat="44.45313" lon="6.85328">
        <ele>1768.69</ele>
        <time>2018-04-17T04:34:29.000Z</time>
      </trkpt>
      <trkpt lat="44.45315" lon="6.85353">
        <ele>1771.5</ele>
        <time>2018-04-17T04:35:01.000Z</time>
      </trkpt>
      <trkpt lat="44.45308" lon="6.85379">
        <ele>1775.73</ele>
        <time>2018-04-17T04:35:37.000Z</time>
      </trkpt>
      <trkpt lat="44.45302" lon="6.85403">
        <ele>1777.68</ele>
        <time>2018-04-17T04:36:01.000Z</time>
      </trkpt>
      <trkpt lat="44.45298" lon="6.85432">
        <ele>1780.02</ele>
        <time>2018-04-17T04:36:45.000Z</time>
      </trkpt>
      <trkpt lat="44.4529" lon="6.85459">
        <ele>1783.67</ele>
        <time>2018-04-17T04:37:25.000Z</time>
      </trkpt>
      <trkpt lat="44.45296" lon="6.85484">
        <ele>1790.61</ele>
        <time>2018-04-17T04:38:05.000Z</time>
      </trkpt>
      <trkpt lat="44.45313" lon="6.85494">
        <ele>1795.82</ele>
        <time>2018-04-17T04:38:33.000Z</time>
      </trkpt>
      <trkpt lat="44.45332" lon="6.85503">
        <ele>1800.94</ele>
        <time>2018-04-17T04:39:05.000Z</time>
      </trkpt>
      <trkpt lat="44.45346" lon="6.85524">
        <ele>1810.04</ele>
        <time>2018-04-17T04:40:01.000Z</time>
      </trkpt>
      <trkpt lat="44.45338" lon="6.85555">
        <ele>1813.41</ele>
        <time>2018-04-17T04:40:21.000Z</time>
      </trkpt>
      <trkpt lat="44.45327" lon="6.85578">
        <ele>1815.74</ele>
        <time>2018-04-17T04:40:49.000Z</time>
      </trkpt>
      <trkpt lat="44.4533" lon="6.85604">
        <ele>1824.83</ele>
        <time>2018-04-17T04:41:41.000Z</time>
      </trkpt>
      <trkpt lat="44.4534" lon="6.85625">
        <ele>1836.62</ele>
        <time>2018-04-17T04:45:25.000Z</time>
      </trkpt>
      <trkpt lat="44.45337" lon="6.85655">
        <ele>1841.77</ele>
        <time>2018-04-17T04:46:53.000Z</time>
      </trkpt>
      <trkpt lat="44.45339" lon="6.8568">
        <ele>1842.71</ele>
        <time>2018-04-17T04:48:29.000Z</time>
      </trkpt>
      <trkpt lat="44.45335" lon="6.85706">
        <ele>1843.95</ele>
        <time>2018-04-17T04:49:34.000Z</time>
      </trkpt>
      <trkpt lat="44.4534" lon="6.8573">
        <ele>1847.23</ele>
        <time>2018-04-17T04:50:22.000Z</time>
      </trkpt>
      <trkpt lat="44.45338" lon="6.85756">
        <ele>1850.57</ele>
        <time>2018-04-17T04:51:02.000Z</time>
      </trkpt>
      <trkpt lat="44.45343" lon="6.85783">
        <ele>1853.36</ele>
        <time>2018-04-17T04:51:54.000Z</time>
      </trkpt>
      <trkpt lat="44.45361" lon="6.85796">
        <ele>1860.76</ele>
        <time>2018-04-17T04:53:06.000Z</time>
      </trkpt>
      <trkpt lat="44.45353" lon="6.85819">
        <ele>1863.3</ele>
        <time>2018-04-17T04:53:58.000Z</time>
      </trkpt>
      <trkpt lat="44.45362" lon="6.85841">
        <ele>1867.01</ele>
        <time>2018-04-17T04:54:46.000Z</time>
      </trkpt>
      <trkpt lat="44.45358" lon="6.85866">
        <ele>1873.03</ele>
        <time>2018-04-17T04:55:34.000Z</time>
      </trkpt>
      <trkpt lat="44.45346" lon="6.85887">
        <ele>1885.26</ele>
        <time>2018-04-17T04:58:22.000Z</time>
      </trkpt>
      <trkpt lat="44.4533" lon="6.85898">
        <ele>1890.31</ele>
        <time>2018-04-17T04:59:10.000Z</time>
      </trkpt>
      <trkpt lat="44.45338" lon="6.85922">
        <ele>1891.5</ele>
        <time>2018-04-17T04:59:54.000Z</time>
      </trkpt>
      <trkpt lat="44.45356" lon="6.85921">
        <ele>1894.05</ele>
        <time>2018-04-17T05:01:22.000Z</time>
      </trkpt>
      <trkpt lat="44.45373" lon="6.85909">
        <ele>1897</ele>
        <time>2018-04-17T05:01:58.000Z</time>
      </trkpt>
      <trkpt lat="44.45391" lon="6.85897">
        <ele>1899.04</ele>
        <time>2018-04-17T05:02:26.000Z</time>
      </trkpt>
      <trkpt lat="44.45399" lon="6.85874">
        <ele>1909.5</ele>
        <time>2018-04-17T05:04:54.000Z</time>
      </trkpt>
      <trkpt lat="44.45414" lon="6.85889">
        <ele>1915.73</ele>
        <time>2018-04-17T05:05:22.000Z</time>
      </trkpt>
      <trkpt lat="44.45429" lon="6.85902">
        <ele>1922.43</ele>
        <time>2018-04-17T05:06:46.000Z</time>
      </trkpt>
      <trkpt lat="44.45445" lon="6.85917">
        <ele>1912.37</ele>
        <time>2018-04-17T05:09:57.000Z</time>
      </trkpt>
      <trkpt lat="44.45446" lon="6.85942">
        <ele>1914.38</ele>
        <time>2018-04-17T05:11:13.000Z</time>
      </trkpt>
      <trkpt lat="44.45432" lon="6.85956">
        <ele>1918.2</ele>
        <time>2018-04-17T05:13:25.000Z</time>
      </trkpt>
      <trkpt lat="44.4545" lon="6.85965">
        <ele>1925.57</ele>
        <time>2018-04-17T05:15:09.000Z</time>
      </trkpt>
      <trkpt lat="44.4546" lon="6.85987">
        <ele>1927.26</ele>
        <time>2018-04-17T05:15:53.000Z</time>
      </trkpt>
      <trkpt lat="44.45469" lon="6.86009">
        <ele>1931.9</ele>
        <time>2018-04-17T05:16:53.000Z</time>
      </trkpt>
      <trkpt lat="44.45487" lon="6.86017">
        <ele>1940.63</ele>
        <time>2018-04-17T05:18:01.000Z</time>
      </trkpt>
      <trkpt lat="44.45488" lon="6.86046">
        <ele>1944.83</ele>
        <time>2018-04-17T05:18:33.000Z</time>
      </trkpt>
      <trkpt lat="44.45494" lon="6.86072">
        <ele>1953.28</ele>
        <time>2018-04-17T05:19:29.000Z</time>
      </trkpt>
      <trkpt lat="44.45496" lon="6.86097">
        <ele>1973.39</ele>
        <time>2018-04-17T05:22:05.000Z</time>
      </trkpt>
      <trkpt lat="44.45493" lon="6.86123">
        <ele>1981.25</ele>
        <time>2018-04-17T05:23:21.000Z</time>
      </trkpt>
      <trkpt lat="44.45511" lon="6.86136">
        <ele>1986.63</ele>
        <time>2018-04-17T05:24:05.000Z</time>
      </trkpt>
      <trkpt lat="44.45509" lon="6.86162">
        <ele>1993.62</ele>
        <time>2018-04-17T05:25:29.000Z</time>
      </trkpt>
      <trkpt lat="44.45499" lon="6.86187">
        <ele>2011.79</ele>
        <time>2018-04-17T05:27:26.000Z</time>
      </trkpt>
      <trkpt lat="44.45482" lon="6.86203">
        <ele>2017.07</ele>
        <time>2018-04-17T05:27:50.000Z</time>
      </trkpt>
      <trkpt lat="44.45489" lon="6.86227">
        <ele>2027.73</ele>
        <time>2018-04-17T05:28:58.000Z</time>
      </trkpt>
      <trkpt lat="44.45494" lon="6.86252">
        <ele>2041.36</ele>
        <time>2018-04-17T05:30:58.000Z</time>
      </trkpt>
      <trkpt lat="44.45516" lon="6.86255">
        <ele>2046.7</ele>
        <time>2018-04-17T05:31:30.000Z</time>
      </trkpt>
      <trkpt lat="44.45534" lon="6.86249">
        <ele>2047.92</ele>
        <time>2018-04-17T05:31:50.000Z</time>
      </trkpt>
      <trkpt lat="44.45553" lon="6.86261">
        <ele>2079.11</ele>
        <time>2018-04-17T05:43:26.000Z</time>
      </trkpt>
      <trkpt lat="44.45564" lon="6.86281">
        <ele>2074.94</ele>
        <time>2018-04-17T05:46:05.000Z</time>
      </trkpt>
      <trkpt lat="44.45575" lon="6.86301">
        <ele>2088.99</ele>
        <time>2018-04-17T05:49:21.000Z</time>
      </trkpt>
      <trkpt lat="44.45587" lon="6.86322">
        <ele>2107.16</ele>
        <time>2018-04-17T05:52:37.000Z</time>
      </trkpt>
      <trkpt lat="44.45593" lon="6.86349">
        <ele>2123.17</ele>
        <time>2018-04-17T05:56:05.000Z</time>
      </trkpt>
      <trkpt lat="44.45605" lon="6.86368">
        <ele>2131.59</ele>
        <time>2018-04-17T05:58:25.000Z</time>
      </trkpt>
      <trkpt lat="44.45617" lon="6.86388">
        <ele>2152.74</ele>
        <time>2018-04-17T06:02:05.000Z</time>
      </trkpt>
      <trkpt lat="44.45636" lon="6.86391">
        <ele>2162.57</ele>
        <time>2018-04-17T06:03:54.000Z</time>
      </trkpt>
      <trkpt lat="44.45653" lon="6.86401">
        <ele>2181.68</ele>
        <time>2018-04-17T06:06:26.000Z</time>
      </trkpt>
      <trkpt lat="44.45671" lon="6.8641">
        <ele>2195.42</ele>
        <time>2018-04-17T06:10:10.000Z</time>
      </trkpt>
      <trkpt lat="44.45678" lon="6.86434">
        <ele>2210.44</ele>
        <time>2018-04-17T06:18:14.000Z</time>
      </trkpt>
      <trkpt lat="44.45694" lon="6.86445">
        <ele>2229.13</ele>
        <time>2018-04-17T06:23:13.000Z</time>
      </trkpt>
      <trkpt lat="44.45712" lon="6.86454">
        <ele>2244.72</ele>
        <time>2018-04-17T06:27:49.000Z</time>
      </trkpt>
      <trkpt lat="44.45732" lon="6.86453">
        <ele>2250.9</ele>
        <time>2018-04-17T06:30:41.000Z</time>
      </trkpt>
      <trkpt lat="44.4575" lon="6.86448">
        <ele>2252.07</ele>
        <time>2018-04-17T06:31:09.000Z</time>
      </trkpt>
      <trkpt lat="44.45768" lon="6.8644">
        <ele>2254.33</ele>
        <time>2018-04-17T06:31:49.000Z</time>
      </trkpt>
      <trkpt lat="44.45787" lon="6.86428">
        <ele>2256.12</ele>
        <time>2018-04-17T06:32:13.000Z</time>
      </trkpt>
      <trkpt lat="44.45797" lon="6.86404">
        <ele>2257.86</ele>
        <time>2018-04-17T06:33:01.000Z</time>
      </trkpt>
      <trkpt lat="44.45818" lon="6.86403">
        <ele>2257.49</ele>
        <time>2018-04-17T06:39:34.000Z</time>
      </trkpt>
      <trkpt lat="44.45839" lon="6.86409">
        <ele>2256.34</ele>
        <time>2018-04-17T06:40:14.000Z</time>
      </trkpt>
      <trkpt lat="44.4586" lon="6.86419">
        <ele>2251.58</ele>
        <time>2018-04-17T06:40:54.000Z</time>
      </trkpt>
      <trkpt lat="44.4588" lon="6.86423">
        <ele>2245.28</ele>
        <time>2018-04-17T06:41:38.000Z</time>
      </trkpt>
      <trkpt lat="44.459" lon="6.86424">
        <ele>2241.61</ele>
        <time>2018-04-17T06:42:06.000Z</time>
      </trkpt>
      <trkpt lat="44.45919" lon="6.86417">
        <ele>2238.65</ele>
        <time>2018-04-17T06:42:30.000Z</time>
      </trkpt>
      <trkpt lat="44.4594" lon="6.86418">
        <ele>2233.94</ele>
        <time>2018-04-17T06:43:06.000Z</time>
      </trkpt>
      <trkpt lat="44.45958" lon="6.86417">
        <ele>2230.74</ele>
        <time>2018-04-17T06:43:30.000Z</time>
      </trkpt>
      <trkpt lat="44.45975" lon="6.86427">
        <ele>2205.52</ele>
        <time>2018-04-17T06:56:02.000Z</time>
      </trkpt>
      <trkpt lat="44.45997" lon="6.86436">
        <ele>2205.25</ele>
        <time>2018-04-17T06:56:14.000Z</time>
      </trkpt>
      <trkpt lat="44.46018" lon="6.86452">
        <ele>2204.62</ele>
        <time>2018-04-17T06:56:26.000Z</time>
      </trkpt>
      <trkpt lat="44.46034" lon="6.86463">
        <ele>2204.07</ele>
        <time>2018-04-17T06:56:34.000Z</time>
      </trkpt>
      <trkpt lat="44.46052" lon="6.86483">
        <ele>2201.5</ele>
        <time>2018-04-17T06:56:53.000Z</time>
      </trkpt>
      <trkpt lat="44.46067" lon="6.86508">
        <ele>2197.67</ele>
        <time>2018-04-17T06:57:13.000Z</time>
      </trkpt>
      <trkpt lat="44.46078" lon="6.86536">
        <ele>2194.11</ele>
        <time>2018-04-17T06:57:29.000Z</time>
      </trkpt>
      <trkpt lat="44.4609" lon="6.8656">
        <ele>2189.78</ele>
        <time>2018-04-17T06:57:49.000Z</time>
      </trkpt>
      <trkpt lat="44.46098" lon="6.86584">
        <ele>2186.24</ele>
        <time>2018-04-17T06:58:09.000Z</time>
      </trkpt>
      <trkpt lat="44.46107" lon="6.86608">
        <ele>2184.52</ele>
        <time>2018-04-17T06:58:49.000Z</time>
      </trkpt>
      <trkpt lat="44.46115" lon="6.86632">
        <ele>2184.97</ele>
        <time>2018-04-17T06:59:13.000Z</time>
      </trkpt>
      <trkpt lat="44.46127" lon="6.86658">
        <ele>2185.68</ele>
        <time>2018-04-17T06:59:41.000Z</time>
      </trkpt>
      <trkpt lat="44.46135" lon="6.86682">
        <ele>2185.68</ele>
        <time>2018-04-17T07:00:13.000Z</time>
      </trkpt>
      <trkpt lat="44.46145" lon="6.86714">
        <ele>2183.64</ele>
        <time>2018-04-17T07:00:37.000Z</time>
      </trkpt>
      <trkpt lat="44.46146" lon="6.86743">
        <ele>2183.34</ele>
        <time>2018-04-17T07:00:53.000Z</time>
      </trkpt>
      <trkpt lat="44.46143" lon="6.86777">
        <ele>2187.13</ele>
        <time>2018-04-17T07:01:57.000Z</time>
      </trkpt>
      <trkpt lat="44.46157" lon="6.86799">
        <ele>2187.16</ele>
        <time>2018-04-17T07:02:09.000Z</time>
      </trkpt>
      <trkpt lat="44.46169" lon="6.8682">
        <ele>2184.66</ele>
        <time>2018-04-17T07:02:33.000Z</time>
      </trkpt>
      <trkpt lat="44.46178" lon="6.86843">
        <ele>2182.55</ele>
        <time>2018-04-17T07:02:45.000Z</time>
      </trkpt>
      <trkpt lat="44.46187" lon="6.86865">
        <ele>2178.11</ele>
        <time>2018-04-17T07:03:09.000Z</time>
      </trkpt>
      <trkpt lat="44.46189" lon="6.86894">
        <ele>2172.18</ele>
        <time>2018-04-17T07:03:33.000Z</time>
      </trkpt>
      <trkpt lat="44.46187" lon="6.8692">
        <ele>2183.36</ele>
        <time>2018-04-17T07:05:41.000Z</time>
      </trkpt>
      <trkpt lat="44.46179" lon="6.86949">
        <ele>2198.47</ele>
        <time>2018-04-17T07:06:09.000Z</time>
      </trkpt>
      <trkpt lat="44.46174" lon="6.86974">
        <ele>2201.49</ele>
        <time>2018-04-17T07:06:41.000Z</time>
      </trkpt>
      <trkpt lat="44.46167" lon="6.86998">
        <ele>2200.23</ele>
        <time>2018-04-17T07:07:13.000Z</time>
      </trkpt>
      <trkpt lat="44.46171" lon="6.87028">
        <ele>2199.55</ele>
        <time>2018-04-17T07:08:01.000Z</time>
      </trkpt>
      <trkpt lat="44.4619" lon="6.87046">
        <ele>2199.29</ele>
        <time>2018-04-17T07:08:25.000Z</time>
      </trkpt>
      <trkpt lat="44.46207" lon="6.87062">
        <ele>2198.31</ele>
        <time>2018-04-17T07:08:49.000Z</time>
      </trkpt>
      <trkpt lat="44.46226" lon="6.87073">
        <ele>2198.58</ele>
        <time>2018-04-17T07:09:33.000Z</time>
      </trkpt>
      <trkpt lat="44.46248" lon="6.87076">
        <ele>2199.03</ele>
        <time>2018-04-17T07:10:05.000Z</time>
      </trkpt>
      <trkpt lat="44.46268" lon="6.87079">
        <ele>2199.68</ele>
        <time>2018-04-17T07:10:33.000Z</time>
      </trkpt>
      <trkpt lat="44.46287" lon="6.87086">
        <ele>2201.23</ele>
        <time>2018-04-17T07:10:49.000Z</time>
      </trkpt>
      <trkpt lat="44.46304" lon="6.87097">
        <ele>2202.49</ele>
        <time>2018-04-17T07:11:01.000Z</time>
      </trkpt>
      <trkpt lat="44.46325" lon="6.87091">
        <ele>2205.79</ele>
        <time>2018-04-17T07:11:53.000Z</time>
      </trkpt>
      <trkpt lat="44.46341" lon="6.87111">
        <ele>2207.37</ele>
        <time>2018-04-17T07:12:25.000Z</time>
      </trkpt>
      <trkpt lat="44.46353" lon="6.87131">
        <ele>2210.01</ele>
        <time>2018-04-17T07:13:01.000Z</time>
      </trkpt>
      <trkpt lat="44.46369" lon="6.87147">
        <ele>2212.5</ele>
        <time>2018-04-17T07:13:41.000Z</time>
      </trkpt>
      <trkpt lat="44.46377" lon="6.87171">
        <ele>2214.64</ele>
        <time>2018-04-17T07:14:18.000Z</time>
      </trkpt>
      <trkpt lat="44.46388" lon="6.87198">
        <ele>2217.12</ele>
        <time>2018-04-17T07:14:54.000Z</time>
      </trkpt>
      <trkpt lat="44.46408" lon="6.87199">
        <ele>2222.54</ele>
        <time>2018-04-17T07:15:42.000Z</time>
      </trkpt>
      <trkpt lat="44.46422" lon="6.87218">
        <ele>2226.21</ele>
        <time>2018-04-17T07:16:42.000Z</time>
      </trkpt>
      <trkpt lat="44.4643" lon="6.87242">
        <ele>2230.47</ele>
        <time>2018-04-17T07:17:30.000Z</time>
      </trkpt>
      <trkpt lat="44.46441" lon="6.87262">
        <ele>2235.61</ele>
        <time>2018-04-17T07:17:58.000Z</time>
      </trkpt>
      <trkpt lat="44.4645" lon="6.8724">
        <ele>2245.3</ele>
        <time>2018-04-17T07:19:18.000Z</time>
      </trkpt>
      <trkpt lat="44.4646" lon="6.87216">
        <ele>2245.83</ele>
        <time>2018-04-17T07:19:34.000Z</time>
      </trkpt>
      <trkpt lat="44.46477" lon="6.87196">
        <ele>2247.01</ele>
        <time>2018-04-17T07:19:58.000Z</time>
      </trkpt>
      <trkpt lat="44.46491" lon="6.87178">
        <ele>2250.59</ele>
        <time>2018-04-17T07:20:22.000Z</time>
      </trkpt>
      <trkpt lat="44.46507" lon="6.87162">
        <ele>2253.96</ele>
        <time>2018-04-17T07:20:46.000Z</time>
      </trkpt>
      <trkpt lat="44.46521" lon="6.87146">
        <ele>2257.15</ele>
        <time>2018-04-17T07:21:06.000Z</time>
      </trkpt>
      <trkpt lat="44.46536" lon="6.87132">
        <ele>2259.77</ele>
        <time>2018-04-17T07:21:46.000Z</time>
      </trkpt>
      <trkpt lat="44.46554" lon="6.87125">
        <ele>2263.69</ele>
        <time>2018-04-17T07:22:14.000Z</time>
      </trkpt>
      <trkpt lat="44.46571" lon="6.87116">
        <ele>2270.98</ele>
        <time>2018-04-17T07:22:42.000Z</time>
      </trkpt>
      <trkpt lat="44.46591" lon="6.87108">
        <ele>2278.15</ele>
        <time>2018-04-17T07:23:22.000Z</time>
      </trkpt>
      <trkpt lat="44.466" lon="6.87086">
        <ele>2281.92</ele>
        <time>2018-04-17T07:24:06.000Z</time>
      </trkpt>
      <trkpt lat="44.46616" lon="6.87066">
        <ele>2284.62</ele>
        <time>2018-04-17T07:24:34.000Z</time>
      </trkpt>
      <trkpt lat="44.46634" lon="6.8705">
        <ele>2291.48</ele>
        <time>2018-04-17T07:25:18.000Z</time>
      </trkpt>
      <trkpt lat="44.46648" lon="6.87032">
        <ele>2301.79</ele>
        <time>2018-04-17T07:26:26.000Z</time>
      </trkpt>
      <trkpt lat="44.46667" lon="6.87028">
        <ele>2305.88</ele>
        <time>2018-04-17T07:31:34.000Z</time>
      </trkpt>
      <trkpt lat="44.46685" lon="6.87031">
        <ele>2306.64</ele>
        <time>2018-04-17T07:31:53.000Z</time>
      </trkpt>
      <trkpt lat="44.46706" lon="6.87031">
        <ele>2309.65</ele>
        <time>2018-04-17T07:32:33.000Z</time>
      </trkpt>
      <trkpt lat="44.46725" lon="6.87021">
        <ele>2311.9</ele>
        <time>2018-04-17T07:33:01.000Z</time>
      </trkpt>
      <trkpt lat="44.46744" lon="6.87008">
        <ele>2314.58</ele>
        <time>2018-04-17T07:33:29.000Z</time>
      </trkpt>
      <trkpt lat="44.46761" lon="6.86993">
        <ele>2317.31</ele>
        <time>2018-04-17T07:33:53.000Z</time>
      </trkpt>
      <trkpt lat="44.46777" lon="6.86979">
        <ele>2319.12</ele>
        <time>2018-04-17T07:34:17.000Z</time>
      </trkpt>
      <trkpt lat="44.46795" lon="6.86965">
        <ele>2320.41</ele>
        <time>2018-04-17T07:34:41.000Z</time>
      </trkpt>
      <trkpt lat="44.4681" lon="6.86948">
        <ele>2320.05</ele>
        <time>2018-04-17T07:35:13.000Z</time>
      </trkpt>
      <trkpt lat="44.46827" lon="6.86934">
        <ele>2318.1</ele>
        <time>2018-04-17T07:35:41.000Z</time>
      </trkpt>
      <trkpt lat="44.46841" lon="6.86917">
        <ele>2315.81</ele>
        <time>2018-04-17T07:36:09.000Z</time>
      </trkpt>
      <trkpt lat="44.46856" lon="6.86903">
        <ele>2313.16</ele>
        <time>2018-04-17T07:36:37.000Z</time>
      </trkpt>
      <trkpt lat="44.46867" lon="6.8688">
        <ele>2311.69</ele>
        <time>2018-04-17T07:37:09.000Z</time>
      </trkpt>
      <trkpt lat="44.4688" lon="6.8686">
        <ele>2310.51</ele>
        <time>2018-04-17T07:37:33.000Z</time>
      </trkpt>
      <trkpt lat="44.46894" lon="6.86838">
        <ele>2310.95</ele>
        <time>2018-04-17T07:38:01.000Z</time>
      </trkpt>
      <trkpt lat="44.46904" lon="6.86817">
        <ele>2312.96</ele>
        <time>2018-04-17T07:38:29.000Z</time>
      </trkpt>
      <trkpt lat="44.46911" lon="6.86792">
        <ele>2315.63</ele>
        <time>2018-04-17T07:38:53.000Z</time>
      </trkpt>
      <trkpt lat="44.46925" lon="6.86775">
        <ele>2321.34</ele>
        <time>2018-04-17T07:39:29.000Z</time>
      </trkpt>
      <trkpt lat="44.46944" lon="6.86784">
        <ele>2327.49</ele>
        <time>2018-04-17T07:39:49.000Z</time>
      </trkpt>
      <trkpt lat="44.46963" lon="6.86783">
        <ele>2334.68</ele>
        <time>2018-04-17T07:40:21.000Z</time>
      </trkpt>
      <trkpt lat="44.46983" lon="6.86777">
        <ele>2339.31</ele>
        <time>2018-04-17T07:40:49.000Z</time>
      </trkpt>
      <trkpt lat="44.46998" lon="6.86761">
        <ele>2348.59</ele>
        <time>2018-04-17T07:43:25.000Z</time>
      </trkpt>
      <trkpt lat="44.47013" lon="6.86747">
        <ele>2349.75</ele>
        <time>2018-04-17T07:43:53.000Z</time>
      </trkpt>
      <trkpt lat="44.4703" lon="6.86735">
        <ele>2350.12</ele>
        <time>2018-04-17T07:44:17.000Z</time>
      </trkpt>
      <trkpt lat="44.47049" lon="6.86722">
        <ele>2351.58</ele>
        <time>2018-04-17T07:44:45.000Z</time>
      </trkpt>
      <trkpt lat="44.47069" lon="6.86719">
        <ele>2353.5</ele>
        <time>2018-04-17T07:45:09.000Z</time>
      </trkpt>
      <trkpt lat="44.47089" lon="6.86717">
        <ele>2356.16</ele>
        <time>2018-04-17T07:45:33.000Z</time>
      </trkpt>
      <trkpt lat="44.4711" lon="6.86727">
        <ele>2361.05</ele>
        <time>2018-04-17T07:45:57.000Z</time>
      </trkpt>
      <trkpt lat="44.47128" lon="6.86728">
        <ele>2365.37</ele>
        <time>2018-04-17T07:46:21.000Z</time>
      </trkpt>
      <trkpt lat="44.47147" lon="6.86715">
        <ele>2366.69</ele>
        <time>2018-04-17T07:46:49.000Z</time>
      </trkpt>
      <trkpt lat="44.47165" lon="6.86702">
        <ele>2367.42</ele>
        <time>2018-04-17T07:47:17.000Z</time>
      </trkpt>
      <trkpt lat="44.47181" lon="6.86691">
        <ele>2369.69</ele>
        <time>2018-04-17T07:47:45.000Z</time>
      </trkpt>
      <trkpt lat="44.47197" lon="6.86677">
        <ele>2369.96</ele>
        <time>2018-04-17T07:48:13.000Z</time>
      </trkpt>
      <trkpt lat="44.47216" lon="6.86667">
        <ele>2371.03</ele>
        <time>2018-04-17T07:48:37.000Z</time>
      </trkpt>
      <trkpt lat="44.47231" lon="6.86653">
        <ele>2373.86</ele>
        <time>2018-04-17T07:49:01.000Z</time>
      </trkpt>
      <trkpt lat="44.47248" lon="6.86642">
        <ele>2376.85</ele>
        <time>2018-04-17T07:49:25.000Z</time>
      </trkpt>
      <trkpt lat="44.47267" lon="6.86637">
        <ele>2381.05</ele>
        <time>2018-04-17T07:49:54.000Z</time>
      </trkpt>
      <trkpt lat="44.47285" lon="6.86624">
        <ele>2385.29</ele>
        <time>2018-04-17T07:50:22.000Z</time>
      </trkpt>
      <trkpt lat="44.47301" lon="6.86615">
        <ele>2387.33</ele>
        <time>2018-04-17T07:50:43.000Z</time>
      </trkpt>
      <trkpt lat="44.47318" lon="6.866">
        <ele>2388.64</ele>
        <time>2018-04-17T07:51:07.000Z</time>
      </trkpt>
      <trkpt lat="44.47337" lon="6.86586">
        <ele>2390.42</ele>
        <time>2018-04-17T07:51:35.000Z</time>
      </trkpt>
      <trkpt lat="44.47353" lon="6.86572">
        <ele>2393.93</ele>
        <time>2018-04-17T07:52:11.000Z</time>
      </trkpt>
      <trkpt lat="44.47372" lon="6.86573">
        <ele>2396.01</ele>
        <time>2018-04-17T07:52:35.000Z</time>
      </trkpt>
      <trkpt lat="44.47389" lon="6.86563">
        <ele>2396.75</ele>
        <time>2018-04-17T07:53:03.000Z</time>
      </trkpt>
      <trkpt lat="44.47408" lon="6.86565">
        <ele>2406.89</ele>
        <time>2018-04-17T07:56:07.000Z</time>
      </trkpt>
      <trkpt lat="44.47421" lon="6.86545">
        <ele>2408.69</ele>
        <time>2018-04-17T07:56:35.000Z</time>
      </trkpt>
      <trkpt lat="44.47431" lon="6.8652">
        <ele>2411.59</ele>
        <time>2018-04-17T07:57:07.000Z</time>
      </trkpt>
      <trkpt lat="44.4745" lon="6.86514">
        <ele>2414.94</ele>
        <time>2018-04-17T07:57:39.000Z</time>
      </trkpt>
      <trkpt lat="44.47469" lon="6.86512">
        <ele>2420.04</ele>
        <time>2018-04-17T07:58:23.000Z</time>
      </trkpt>
      <trkpt lat="44.47487" lon="6.86515">
        <ele>2422.88</ele>
        <time>2018-04-17T07:58:39.000Z</time>
      </trkpt>
      <trkpt lat="44.47507" lon="6.86515">
        <ele>2426.16</ele>
        <time>2018-04-17T07:59:03.000Z</time>
      </trkpt>
      <trkpt lat="44.47527" lon="6.86511">
        <ele>2430.37</ele>
        <time>2018-04-17T07:59:39.000Z</time>
      </trkpt>
      <trkpt lat="44.47547" lon="6.86508">
        <ele>2434.46</ele>
        <time>2018-04-17T08:00:07.000Z</time>
      </trkpt>
      <trkpt lat="44.47567" lon="6.86498">
        <ele>2439.38</ele>
        <time>2018-04-17T08:00:35.000Z</time>
      </trkpt>
      <trkpt lat="44.47583" lon="6.86487">
        <ele>2444.01</ele>
        <time>2018-04-17T08:01:07.000Z</time>
      </trkpt>
      <trkpt lat="44.47602" lon="6.86474">
        <ele>2449.41</ele>
        <time>2018-04-17T08:01:39.000Z</time>
      </trkpt>
      <trkpt lat="44.47619" lon="6.86465">
        <ele>2451.79</ele>
        <time>2018-04-17T08:02:03.000Z</time>
      </trkpt>
      <trkpt lat="44.47639" lon="6.86455">
        <ele>2456.88</ele>
        <time>2018-04-17T08:02:39.000Z</time>
      </trkpt>
      <trkpt lat="44.47658" lon="6.86442">
        <ele>2461.57</ele>
        <time>2018-04-17T08:03:19.000Z</time>
      </trkpt>
      <trkpt lat="44.47678" lon="6.86439">
        <ele>2465.66</ele>
        <time>2018-04-17T08:03:43.000Z</time>
      </trkpt>
      <trkpt lat="44.47698" lon="6.86426">
        <ele>2471.06</ele>
        <time>2018-04-17T08:04:11.000Z</time>
      </trkpt>
      <trkpt lat="44.47718" lon="6.86414">
        <ele>2472.21</ele>
        <time>2018-04-17T08:04:39.000Z</time>
      </trkpt>
      <trkpt lat="44.47738" lon="6.86412">
        <ele>2468.68</ele>
        <time>2018-04-17T08:05:07.000Z</time>
      </trkpt>
      <trkpt lat="44.47763" lon="6.86418">
        <ele>2473.39</ele>
        <time>2018-04-17T08:05:43.000Z</time>
      </trkpt>
      <trkpt lat="44.47782" lon="6.86423">
        <ele>2480.12</ele>
        <time>2018-04-17T08:06:31.000Z</time>
      </trkpt>
      <trkpt lat="44.47793" lon="6.86444">
        <ele>2479.04</ele>
        <time>2018-04-17T08:07:27.000Z</time>
      </trkpt>
      <trkpt lat="44.47785" lon="6.86467">
        <ele>2505.63</ele>
        <time>2018-04-17T08:10:23.000Z</time>
      </trkpt>
      <trkpt lat="44.47799" lon="6.86486">
        <ele>2517.51</ele>
        <time>2018-04-17T08:11:39.000Z</time>
      </trkpt>
      <trkpt lat="44.47813" lon="6.86469">
        <ele>2509.45</ele>
        <time>2018-04-17T08:15:59.000Z</time>
      </trkpt>
      <trkpt lat="44.47834" lon="6.86465">
        <ele>2509.71</ele>
        <time>2018-04-17T08:16:23.000Z</time>
      </trkpt>
      <trkpt lat="44.47853" lon="6.86472">
        <ele>2509.66</ele>
        <time>2018-04-17T08:16:47.000Z</time>
      </trkpt>
      <trkpt lat="44.47868" lon="6.86489">
        <ele>2508.93</ele>
        <time>2018-04-17T08:17:11.000Z</time>
      </trkpt>
      <trkpt lat="44.4788" lon="6.8651">
        <ele>2508.12</ele>
        <time>2018-04-17T08:17:39.000Z</time>
      </trkpt>
      <trkpt lat="44.47896" lon="6.8653">
        <ele>2510.81</ele>
        <time>2018-04-17T08:18:19.000Z</time>
      </trkpt>
      <trkpt lat="44.47914" lon="6.86543">
        <ele>2512.06</ele>
        <time>2018-04-17T08:18:47.000Z</time>
      </trkpt>
      <trkpt lat="44.4793" lon="6.86554">
        <ele>2513.53</ele>
        <time>2018-04-17T08:19:15.000Z</time>
      </trkpt>
      <trkpt lat="44.47948" lon="6.86568">
        <ele>2516.75</ele>
        <time>2018-04-17T08:19:43.000Z</time>
      </trkpt>
      <trkpt lat="44.47966" lon="6.86579">
        <ele>2519.12</ele>
        <time>2018-04-17T08:20:07.000Z</time>
      </trkpt>
      <trkpt lat="44.47982" lon="6.8659">
        <ele>2520.68</ele>
        <time>2018-04-17T08:20:43.000Z</time>
      </trkpt>
      <trkpt lat="44.48001" lon="6.86598">
        <ele>2522.45</ele>
        <time>2018-04-17T08:21:27.000Z</time>
      </trkpt>
      <trkpt lat="44.48024" lon="6.86602">
        <ele>2523.48</ele>
        <time>2018-04-17T08:21:47.000Z</time>
      </trkpt>
      <trkpt lat="44.48045" lon="6.86611">
        <ele>2525.44</ele>
        <time>2018-04-17T08:22:07.000Z</time>
      </trkpt>
      <trkpt lat="44.48063" lon="6.86616">
        <ele>2528.95</ele>
        <time>2018-04-17T08:22:31.000Z</time>
      </trkpt>
      <trkpt lat="44.48082" lon="6.86623">
        <ele>2537.45</ele>
        <time>2018-04-17T08:23:03.000Z</time>
      </trkpt>
      <trkpt lat="44.481" lon="6.86631">
        <ele>2543.9</ele>
        <time>2018-04-17T08:23:31.000Z</time>
      </trkpt>
      <trkpt lat="44.4812" lon="6.8664">
        <ele>2552.73</ele>
        <time>2018-04-17T08:24:15.000Z</time>
      </trkpt>
      <trkpt lat="44.4814" lon="6.86652">
        <ele>2556.81</ele>
        <time>2018-04-17T08:24:39.000Z</time>
      </trkpt>
      <trkpt lat="44.48158" lon="6.86645">
        <ele>2561.83</ele>
        <time>2018-04-17T08:25:23.000Z</time>
      </trkpt>
      <trkpt lat="44.48167" lon="6.8662">
        <ele>2562.21</ele>
        <time>2018-04-17T08:25:59.000Z</time>
      </trkpt>
      <trkpt lat="44.48184" lon="6.86603">
        <ele>2564.78</ele>
        <time>2018-04-17T08:26:43.000Z</time>
      </trkpt>
      <trkpt lat="44.48202" lon="6.86605">
        <ele>2568.74</ele>
        <time>2018-04-17T08:27:15.000Z</time>
      </trkpt>
      <trkpt lat="44.48222" lon="6.8661">
        <ele>2574.55</ele>
        <time>2018-04-17T08:27:47.000Z</time>
      </trkpt>
      <trkpt lat="44.4824" lon="6.8662">
        <ele>2578.4</ele>
        <time>2018-04-17T08:28:08.000Z</time>
      </trkpt>
      <trkpt lat="44.48251" lon="6.86598">
        <ele>2593.13</ele>
        <time>2018-04-17T08:29:32.000Z</time>
      </trkpt>
      <trkpt lat="44.48268" lon="6.86585">
        <ele>2604.9</ele>
        <time>2018-04-17T08:30:56.000Z</time>
      </trkpt>
      <trkpt lat="44.48287" lon="6.86583">
        <ele>2609.65</ele>
        <time>2018-04-17T08:31:36.000Z</time>
      </trkpt>
      <trkpt lat="44.48307" lon="6.86579">
        <ele>2617.14</ele>
        <time>2018-04-17T08:32:20.000Z</time>
      </trkpt>
      <trkpt lat="44.48327" lon="6.86566">
        <ele>2628.71</ele>
        <time>2018-04-17T08:40:32.000Z</time>
      </trkpt>
      <trkpt lat="44.48347" lon="6.86567">
        <ele>2632.52</ele>
        <time>2018-04-17T08:41:12.000Z</time>
      </trkpt>
      <trkpt lat="44.48343" lon="6.86539">
        <ele>2631.91</ele>
        <time>2018-04-17T08:42:12.000Z</time>
      </trkpt>
      <trkpt lat="44.48343" lon="6.86514">
        <ele>2634.96</ele>
        <time>2018-04-17T08:43:16.000Z</time>
      </trkpt>
      <trkpt lat="44.48325" lon="6.86509">
        <ele>2644.81</ele>
        <time>2018-04-17T08:45:12.000Z</time>
      </trkpt>
      <trkpt lat="44.48323" lon="6.86483">
        <ele>2652.87</ele>
        <time>2018-04-17T08:46:12.000Z</time>
      </trkpt>
      <trkpt lat="44.48334" lon="6.86459">
        <ele>2649.89</ele>
        <time>2018-04-17T08:47:20.000Z</time>
      </trkpt>
      <trkpt lat="44.48351" lon="6.86448">
        <ele>2646.79</ele>
        <time>2018-04-17T08:48:00.000Z</time>
      </trkpt>
      <trkpt lat="44.48372" lon="6.86447">
        <ele>2648.82</ele>
        <time>2018-04-17T08:48:48.000Z</time>
      </trkpt>
      <trkpt lat="44.48394" lon="6.86446">
        <ele>2653.51</ele>
        <time>2018-04-17T08:49:04.000Z</time>
      </trkpt>
      <trkpt lat="44.48413" lon="6.86446">
        <ele>2663.63</ele>
        <time>2018-04-17T08:49:32.000Z</time>
      </trkpt>
      <trkpt lat="44.48431" lon="6.86451">
        <ele>2684.41</ele>
        <time>2018-04-17T09:03:43.000Z</time>
      </trkpt>
      <trkpt lat="44.48405" lon="6.86468">
        <ele>2687.02</ele>
        <time>2018-04-17T09:11:24.000Z</time>
      </trkpt>
      <trkpt lat="44.48383" lon="6.86504">
        <ele>2680.34</ele>
        <time>2018-04-17T09:11:32.000Z</time>
      </trkpt>
      <trkpt lat="44.48371" lon="6.86537">
        <ele>2671.93</ele>
        <time>2018-04-17T09:11:36.000Z</time>
      </trkpt>
      <trkpt lat="44.48355" lon="6.86564">
        <ele>2656.59</ele>
        <time>2018-04-17T09:11:40.000Z</time>
      </trkpt>
      <trkpt lat="44.48336" lon="6.86601">
        <ele>2645.07</ele>
        <time>2018-04-17T09:11:44.000Z</time>
      </trkpt>
      <trkpt lat="44.4832" lon="6.86621">
        <ele>2638.69</ele>
        <time>2018-04-17T09:11:48.000Z</time>
      </trkpt>
      <trkpt lat="44.48304" lon="6.86593">
        <ele>2629.53</ele>
        <time>2018-04-17T09:13:44.000Z</time>
      </trkpt>
      <trkpt lat="44.48283" lon="6.86576">
        <ele>2625.37</ele>
        <time>2018-04-17T09:13:48.000Z</time>
      </trkpt>
      <trkpt lat="44.48256" lon="6.86555">
        <ele>2621.83</ele>
        <time>2018-04-17T09:13:52.000Z</time>
      </trkpt>
      <trkpt lat="44.48233" lon="6.86542">
        <ele>2619.34</ele>
        <time>2018-04-17T09:13:56.000Z</time>
      </trkpt>
      <trkpt lat="44.48208" lon="6.86527">
        <ele>2617.54</ele>
        <time>2018-04-17T09:14:00.000Z</time>
      </trkpt>
      <trkpt lat="44.48182" lon="6.86516">
        <ele>2616.13</ele>
        <time>2018-04-17T09:14:04.000Z</time>
      </trkpt>
      <trkpt lat="44.48155" lon="6.86511">
        <ele>2613.96</ele>
        <time>2018-04-17T09:14:08.000Z</time>
      </trkpt>
      <trkpt lat="44.48135" lon="6.8651">
        <ele>2611.73</ele>
        <time>2018-04-17T09:14:12.000Z</time>
      </trkpt>
      <trkpt lat="44.48101" lon="6.86499">
        <ele>2608.35</ele>
        <time>2018-04-17T09:14:20.000Z</time>
      </trkpt>
      <trkpt lat="44.48072" lon="6.86513">
        <ele>2601.2</ele>
        <time>2018-04-17T09:14:28.000Z</time>
      </trkpt>
      <trkpt lat="44.48042" lon="6.86533">
        <ele>2594.7</ele>
        <time>2018-04-17T09:14:32.000Z</time>
      </trkpt>
      <trkpt lat="44.48021" lon="6.86545">
        <ele>2589.95</ele>
        <time>2018-04-17T09:14:36.000Z</time>
      </trkpt>
      <trkpt lat="44.47998" lon="6.8655">
        <ele>2584.3</ele>
        <time>2018-04-17T09:14:40.000Z</time>
      </trkpt>
      <trkpt lat="44.4797" lon="6.86567">
        <ele>2576.91</ele>
        <time>2018-04-17T09:14:44.000Z</time>
      </trkpt>
      <trkpt lat="44.4794" lon="6.86588">
        <ele>2568.44</ele>
        <time>2018-04-17T09:14:48.000Z</time>
      </trkpt>
      <trkpt lat="44.47905" lon="6.86593">
        <ele>2556.62</ele>
        <time>2018-04-17T09:14:52.000Z</time>
      </trkpt>
      <trkpt lat="44.47878" lon="6.86623">
        <ele>2544.66</ele>
        <time>2018-04-17T09:14:56.000Z</time>
      </trkpt>
      <trkpt lat="44.47857" lon="6.86624">
        <ele>2534.88</ele>
        <time>2018-04-17T09:15:00.000Z</time>
      </trkpt>
      <trkpt lat="44.47838" lon="6.86619">
        <ele>2527.67</ele>
        <time>2018-04-17T09:15:04.000Z</time>
      </trkpt>
      <trkpt lat="44.47815" lon="6.86613">
        <ele>2522.72</ele>
        <time>2018-04-17T09:15:08.000Z</time>
      </trkpt>
      <trkpt lat="44.47802" lon="6.86589">
        <ele>2518.49</ele>
        <time>2018-04-17T09:16:04.000Z</time>
      </trkpt>
      <trkpt lat="44.4779" lon="6.86564">
        <ele>2514.64</ele>
        <time>2018-04-17T09:17:00.000Z</time>
      </trkpt>
      <trkpt lat="44.47778" lon="6.86522">
        <ele>2506.25</ele>
        <time>2018-04-17T09:17:08.000Z</time>
      </trkpt>
      <trkpt lat="44.4776" lon="6.8649">
        <ele>2500.09</ele>
        <time>2018-04-17T09:17:16.000Z</time>
      </trkpt>
      <trkpt lat="44.47731" lon="6.8648">
        <ele>2497.69</ele>
        <time>2018-04-17T09:17:20.000Z</time>
      </trkpt>
      <trkpt lat="44.47699" lon="6.86463">
        <ele>2494.4</ele>
        <time>2018-04-17T09:17:24.000Z</time>
      </trkpt>
      <trkpt lat="44.47677" lon="6.86463">
        <ele>2489.42</ele>
        <time>2018-04-17T09:17:28.000Z</time>
      </trkpt>
      <trkpt lat="44.47648" lon="6.86464">
        <ele>2484.72</ele>
        <time>2018-04-17T09:17:32.000Z</time>
      </trkpt>
      <trkpt lat="44.47619" lon="6.86461">
        <ele>2481.71</ele>
        <time>2018-04-17T09:17:36.000Z</time>
      </trkpt>
      <trkpt lat="44.47596" lon="6.86467">
        <ele>2479.86</ele>
        <time>2018-04-17T09:17:40.000Z</time>
      </trkpt>
      <trkpt lat="44.47569" lon="6.86481">
        <ele>2476.5</ele>
        <time>2018-04-17T09:17:44.000Z</time>
      </trkpt>
      <trkpt lat="44.47547" lon="6.86474">
        <ele>2472.43</ele>
        <time>2018-04-17T09:17:48.000Z</time>
      </trkpt>
      <trkpt lat="44.47523" lon="6.86464">
        <ele>2467.99</ele>
        <time>2018-04-17T09:17:52.000Z</time>
      </trkpt>
      <trkpt lat="44.47495" lon="6.86477">
        <ele>2463.2</ele>
        <time>2018-04-17T09:17:56.000Z</time>
      </trkpt>
      <trkpt lat="44.47467" lon="6.86496">
        <ele>2458.81</ele>
        <time>2018-04-17T09:18:00.000Z</time>
      </trkpt>
      <trkpt lat="44.47437" lon="6.86499">
        <ele>2454.76</ele>
        <time>2018-04-17T09:18:04.000Z</time>
      </trkpt>
      <trkpt lat="44.47408" lon="6.86508">
        <ele>2451.57</ele>
        <time>2018-04-17T09:18:08.000Z</time>
      </trkpt>
      <trkpt lat="44.47383" lon="6.86518">
        <ele>2447.64</ele>
        <time>2018-04-17T09:18:12.000Z</time>
      </trkpt>
      <trkpt lat="44.47355" lon="6.86541">
        <ele>2443.23</ele>
        <time>2018-04-17T09:18:16.000Z</time>
      </trkpt>
      <trkpt lat="44.47322" lon="6.86563">
        <ele>2438.79</ele>
        <time>2018-04-17T09:18:20.000Z</time>
      </trkpt>
      <trkpt lat="44.4729" lon="6.86582">
        <ele>2432.7</ele>
        <time>2018-04-17T09:18:24.000Z</time>
      </trkpt>
      <trkpt lat="44.47263" lon="6.86589">
        <ele>2426.3</ele>
        <time>2018-04-17T09:18:28.000Z</time>
      </trkpt>
      <trkpt lat="44.47244" lon="6.86593">
        <ele>2420.8</ele>
        <time>2018-04-17T09:18:32.000Z</time>
      </trkpt>
      <trkpt lat="44.47215" lon="6.86608">
        <ele>2415.92</ele>
        <time>2018-04-17T09:18:36.000Z</time>
      </trkpt>
      <trkpt lat="44.47181" lon="6.86615">
        <ele>2414.31</ele>
        <time>2018-04-17T09:18:40.000Z</time>
      </trkpt>
      <trkpt lat="44.47155" lon="6.8662">
        <ele>2412.98</ele>
        <time>2018-04-17T09:18:44.000Z</time>
      </trkpt>
      <trkpt lat="44.47128" lon="6.8664">
        <ele>2412.46</ele>
        <time>2018-04-17T09:18:52.000Z</time>
      </trkpt>
      <trkpt lat="44.47101" lon="6.86655">
        <ele>2411.91</ele>
        <time>2018-04-17T09:19:00.000Z</time>
      </trkpt>
      <trkpt lat="44.47079" lon="6.86659">
        <ele>2410.48</ele>
        <time>2018-04-17T09:19:08.000Z</time>
      </trkpt>
      <trkpt lat="44.47055" lon="6.8666">
        <ele>2403.6</ele>
        <time>2018-04-17T09:20:08.000Z</time>
      </trkpt>
      <trkpt lat="44.47027" lon="6.86656">
        <ele>2400.97</ele>
        <time>2018-04-17T09:20:20.000Z</time>
      </trkpt>
      <trkpt lat="44.47004" lon="6.86653">
        <ele>2399.6</ele>
        <time>2018-04-17T09:20:28.000Z</time>
      </trkpt>
      <trkpt lat="44.4698" lon="6.86655">
        <ele>2397.36</ele>
        <time>2018-04-17T09:21:00.000Z</time>
      </trkpt>
      <trkpt lat="44.46962" lon="6.86661">
        <ele>2395.75</ele>
        <time>2018-04-17T09:21:20.000Z</time>
      </trkpt>
      <trkpt lat="44.46938" lon="6.86664">
        <ele>2394.4</ele>
        <time>2018-04-17T09:22:56.000Z</time>
      </trkpt>
      <trkpt lat="44.4693" lon="6.8664">
        <ele>2393.35</ele>
        <time>2018-04-17T09:24:52.000Z</time>
      </trkpt>
      <trkpt lat="44.46899" lon="6.86629">
        <ele>2391.46</ele>
        <time>2018-04-17T09:25:00.000Z</time>
      </trkpt>
      <trkpt lat="44.4688" lon="6.86644">
        <ele>2389.05</ele>
        <time>2018-04-17T09:25:04.000Z</time>
      </trkpt>
      <trkpt lat="44.46862" lon="6.86676">
        <ele>2385.12</ele>
        <time>2018-04-17T09:25:08.000Z</time>
      </trkpt>
      <trkpt lat="44.46832" lon="6.86697">
        <ele>2381.11</ele>
        <time>2018-04-17T09:25:12.000Z</time>
      </trkpt>
      <trkpt lat="44.46804" lon="6.86719">
        <ele>2376.03</ele>
        <time>2018-04-17T09:25:16.000Z</time>
      </trkpt>
      <trkpt lat="44.46787" lon="6.8674">
        <ele>2370.79</ele>
        <time>2018-04-17T09:25:20.000Z</time>
      </trkpt>
      <trkpt lat="44.46766" lon="6.86762">
        <ele>2366.51</ele>
        <time>2018-04-17T09:25:24.000Z</time>
      </trkpt>
      <trkpt lat="44.46738" lon="6.8678">
        <ele>2360.72</ele>
        <time>2018-04-17T09:25:28.000Z</time>
      </trkpt>
      <trkpt lat="44.46726" lon="6.86805">
        <ele>2352.91</ele>
        <time>2018-04-17T09:26:52.000Z</time>
      </trkpt>
      <trkpt lat="44.46715" lon="6.86835">
        <ele>2348.96</ele>
        <time>2018-04-17T09:26:56.000Z</time>
      </trkpt>
      <trkpt lat="44.46696" lon="6.86872">
        <ele>2344.85</ele>
        <time>2018-04-17T09:27:00.000Z</time>
      </trkpt>
      <trkpt lat="44.46675" lon="6.86915">
        <ele>2340.76</ele>
        <time>2018-04-17T09:27:04.000Z</time>
      </trkpt>
      <trkpt lat="44.46658" lon="6.86945">
        <ele>2337.15</ele>
        <time>2018-04-17T09:27:08.000Z</time>
      </trkpt>
      <trkpt lat="44.46646" lon="6.86972">
        <ele>2333.94</ele>
        <time>2018-04-17T09:27:12.000Z</time>
      </trkpt>
      <trkpt lat="44.46626" lon="6.87008">
        <ele>2330.57</ele>
        <time>2018-04-17T09:27:20.000Z</time>
      </trkpt>
      <trkpt lat="44.46602" lon="6.87032">
        <ele>2329.64</ele>
        <time>2018-04-17T09:27:28.000Z</time>
      </trkpt>
      <trkpt lat="44.46585" lon="6.87054">
        <ele>2328.39</ele>
        <time>2018-04-17T09:27:36.000Z</time>
      </trkpt>
      <trkpt lat="44.46566" lon="6.87076">
        <ele>2324.99</ele>
        <time>2018-04-17T09:28:00.000Z</time>
      </trkpt>
      <trkpt lat="44.46549" lon="6.87097">
        <ele>2320.96</ele>
        <time>2018-04-17T09:28:24.000Z</time>
      </trkpt>
      <trkpt lat="44.46527" lon="6.87073">
        <ele>2304.41</ele>
        <time>2018-04-17T09:29:27.000Z</time>
      </trkpt>
      <trkpt lat="44.46519" lon="6.87032">
        <ele>2293.32</ele>
        <time>2018-04-17T09:29:35.000Z</time>
      </trkpt>
      <trkpt lat="44.46518" lon="6.86996">
        <ele>2288.47</ele>
        <time>2018-04-17T09:29:43.000Z</time>
      </trkpt>
      <trkpt lat="44.46524" lon="6.86971">
        <ele>2280.37</ele>
        <time>2018-04-17T09:33:15.000Z</time>
      </trkpt>
      <trkpt lat="44.46506" lon="6.86933">
        <ele>2270.02</ele>
        <time>2018-04-17T09:33:23.000Z</time>
      </trkpt>
      <trkpt lat="44.46503" lon="6.86879">
        <ele>2256.53</ele>
        <time>2018-04-17T09:33:31.000Z</time>
      </trkpt>
      <trkpt lat="44.46498" lon="6.86849">
        <ele>2247.17</ele>
        <time>2018-04-17T09:33:35.000Z</time>
      </trkpt>
      <trkpt lat="44.46497" lon="6.8682">
        <ele>2237.86</ele>
        <time>2018-04-17T09:33:39.000Z</time>
      </trkpt>
      <trkpt lat="44.46493" lon="6.86783">
        <ele>2225.41</ele>
        <time>2018-04-17T09:33:43.000Z</time>
      </trkpt>
      <trkpt lat="44.46494" lon="6.86754">
        <ele>2210.43</ele>
        <time>2018-04-17T09:33:47.000Z</time>
      </trkpt>
      <trkpt lat="44.46491" lon="6.86721">
        <ele>2196.42</ele>
        <time>2018-04-17T09:33:51.000Z</time>
      </trkpt>
      <trkpt lat="44.4648" lon="6.86681">
        <ele>2180.86</ele>
        <time>2018-04-17T09:33:55.000Z</time>
      </trkpt>
      <trkpt lat="44.46487" lon="6.86635">
        <ele>2163.86</ele>
        <time>2018-04-17T09:33:59.000Z</time>
      </trkpt>
      <trkpt lat="44.46494" lon="6.86599">
        <ele>2141.86</ele>
        <time>2018-04-17T09:35:27.000Z</time>
      </trkpt>
      <trkpt lat="44.46503" lon="6.86568">
        <ele>2139.12</ele>
        <time>2018-04-17T09:35:31.000Z</time>
      </trkpt>
      <trkpt lat="44.46505" lon="6.8653">
        <ele>2136.86</ele>
        <time>2018-04-17T09:35:35.000Z</time>
      </trkpt>
      <trkpt lat="44.46497" lon="6.86498">
        <ele>2135.65</ele>
        <time>2018-04-17T09:35:39.000Z</time>
      </trkpt>
      <trkpt lat="44.46488" lon="6.86456">
        <ele>2131.19</ele>
        <time>2018-04-17T09:35:47.000Z</time>
      </trkpt>
      <trkpt lat="44.46486" lon="6.86425">
        <ele>2125.77</ele>
        <time>2018-04-17T09:35:51.000Z</time>
      </trkpt>
      <trkpt lat="44.46486" lon="6.86395">
        <ele>2121.32</ele>
        <time>2018-04-17T09:35:55.000Z</time>
      </trkpt>
      <trkpt lat="44.46486" lon="6.86368">
        <ele>2118.34</ele>
        <time>2018-04-17T09:35:59.000Z</time>
      </trkpt>
      <trkpt lat="44.46487" lon="6.86326">
        <ele>2116.12</ele>
        <time>2018-04-17T09:36:07.000Z</time>
      </trkpt>
      <trkpt lat="44.46484" lon="6.86291">
        <ele>2115.36</ele>
        <time>2018-04-17T09:36:11.000Z</time>
      </trkpt>
      <trkpt lat="44.46473" lon="6.8627">
        <ele>2114.78</ele>
        <time>2018-04-17T09:36:15.000Z</time>
      </trkpt>
      <trkpt lat="44.46459" lon="6.86253">
        <ele>2112.5</ele>
        <time>2018-04-17T09:36:19.000Z</time>
      </trkpt>
      <trkpt lat="44.4645" lon="6.86231">
        <ele>2108.73</ele>
        <time>2018-04-17T09:36:23.000Z</time>
      </trkpt>
      <trkpt lat="44.46435" lon="6.86206">
        <ele>2104.53</ele>
        <time>2018-04-17T09:36:27.000Z</time>
      </trkpt>
      <trkpt lat="44.46424" lon="6.86183">
        <ele>2101.08</ele>
        <time>2018-04-17T09:36:35.000Z</time>
      </trkpt>
      <trkpt lat="44.46408" lon="6.86156">
        <ele>2096.58</ele>
        <time>2018-04-17T09:37:11.000Z</time>
      </trkpt>
      <trkpt lat="44.46401" lon="6.86129">
        <ele>2096.5</ele>
        <time>2018-04-17T09:37:19.000Z</time>
      </trkpt>
      <trkpt lat="44.46396" lon="6.86091">
        <ele>2095.72</ele>
        <time>2018-04-17T09:37:27.000Z</time>
      </trkpt>
      <trkpt lat="44.46392" lon="6.86055">
        <ele>2086.99</ele>
        <time>2018-04-17T09:37:39.000Z</time>
      </trkpt>
      <trkpt lat="44.46389" lon="6.86024">
        <ele>2080.14</ele>
        <time>2018-04-17T09:37:47.000Z</time>
      </trkpt>
      <trkpt lat="44.46388" lon="6.8599">
        <ele>2078.56</ele>
        <time>2018-04-17T09:37:59.000Z</time>
      </trkpt>
      <trkpt lat="44.4639" lon="6.85958">
        <ele>2079.65</ele>
        <time>2018-04-17T09:38:15.000Z</time>
      </trkpt>
      <trkpt lat="44.46393" lon="6.85924">
        <ele>2083.21</ele>
        <time>2018-04-17T09:39:27.000Z</time>
      </trkpt>
      <trkpt lat="44.46392" lon="6.85879">
        <ele>2083.63</ele>
        <time>2018-04-17T09:39:35.000Z</time>
      </trkpt>
      <trkpt lat="44.46385" lon="6.85837">
        <ele>2082.31</ele>
        <time>2018-04-17T09:39:43.000Z</time>
      </trkpt>
      <trkpt lat="44.46368" lon="6.85843">
        <ele>2079.94</ele>
        <time>2018-04-17T09:39:47.000Z</time>
      </trkpt>
      <trkpt lat="44.46349" lon="6.85825">
        <ele>2076.34</ele>
        <time>2018-04-17T09:39:51.000Z</time>
      </trkpt>
      <trkpt lat="44.46347" lon="6.85797">
        <ele>2072.49</ele>
        <time>2018-04-17T09:39:55.000Z</time>
      </trkpt>
      <trkpt lat="44.46335" lon="6.85771">
        <ele>2067.41</ele>
        <time>2018-04-17T09:39:59.000Z</time>
      </trkpt>
      <trkpt lat="44.46319" lon="6.85742">
        <ele>2060.6</ele>
        <time>2018-04-17T09:40:03.000Z</time>
      </trkpt>
      <trkpt lat="44.46304" lon="6.85711">
        <ele>2052.8</ele>
        <time>2018-04-17T09:40:07.000Z</time>
      </trkpt>
      <trkpt lat="44.46309" lon="6.85676">
        <ele>2046.17</ele>
        <time>2018-04-17T09:40:11.000Z</time>
      </trkpt>
      <trkpt lat="44.46296" lon="6.85619">
        <ele>2035.12</ele>
        <time>2018-04-17T09:40:19.000Z</time>
      </trkpt>
      <trkpt lat="44.46303" lon="6.85583">
        <ele>2029.84</ele>
        <time>2018-04-17T09:40:23.000Z</time>
      </trkpt>
      <trkpt lat="44.46297" lon="6.85557">
        <ele>2026.5</ele>
        <time>2018-04-17T09:40:31.000Z</time>
      </trkpt>
      <trkpt lat="44.4629" lon="6.85513">
        <ele>2015.46</ele>
        <time>2018-04-17T09:41:43.000Z</time>
      </trkpt>
      <trkpt lat="44.46275" lon="6.85472">
        <ele>2008.08</ele>
        <time>2018-04-17T09:41:51.000Z</time>
      </trkpt>
      <trkpt lat="44.46247" lon="6.85454">
        <ele>2000.43</ele>
        <time>2018-04-17T09:42:31.000Z</time>
      </trkpt>
      <trkpt lat="44.46228" lon="6.85433">
        <ele>1994.79</ele>
        <time>2018-04-17T09:42:51.000Z</time>
      </trkpt>
      <trkpt lat="44.46205" lon="6.85409">
        <ele>1989.45</ele>
        <time>2018-04-17T09:42:59.000Z</time>
      </trkpt>
      <trkpt lat="44.46193" lon="6.8538">
        <ele>1986.85</ele>
        <time>2018-04-17T09:43:07.000Z</time>
      </trkpt>
      <trkpt lat="44.46183" lon="6.85344">
        <ele>1985.38</ele>
        <time>2018-04-17T09:43:15.000Z</time>
      </trkpt>
      <trkpt lat="44.46166" lon="6.85324">
        <ele>1982.37</ele>
        <time>2018-04-17T09:43:31.000Z</time>
      </trkpt>
      <trkpt lat="44.46153" lon="6.85303">
        <ele>1980.17</ele>
        <time>2018-04-17T09:43:43.000Z</time>
      </trkpt>
      <trkpt lat="44.46137" lon="6.85276">
        <ele>1971.89</ele>
        <time>2018-04-17T09:46:11.000Z</time>
      </trkpt>
      <trkpt lat="44.46127" lon="6.85251">
        <ele>1969.18</ele>
        <time>2018-04-17T09:46:19.000Z</time>
      </trkpt>
      <trkpt lat="44.46125" lon="6.85293">
        <ele>1962.48</ele>
        <time>2018-04-17T09:47:03.000Z</time>
      </trkpt>
      <trkpt lat="44.46102" lon="6.85325">
        <ele>1957.59</ele>
        <time>2018-04-17T09:47:11.000Z</time>
      </trkpt>
      <trkpt lat="44.46083" lon="6.85334">
        <ele>1953.25</ele>
        <time>2018-04-17T09:47:15.000Z</time>
      </trkpt>
      <trkpt lat="44.46059" lon="6.85343">
        <ele>1946.48</ele>
        <time>2018-04-17T09:47:19.000Z</time>
      </trkpt>
      <trkpt lat="44.46032" lon="6.85354">
        <ele>1940.15</ele>
        <time>2018-04-17T09:47:23.000Z</time>
      </trkpt>
      <trkpt lat="44.46012" lon="6.85359">
        <ele>1934.33</ele>
        <time>2018-04-17T09:47:27.000Z</time>
      </trkpt>
      <trkpt lat="44.45993" lon="6.85361">
        <ele>1929.78</ele>
        <time>2018-04-17T09:47:31.000Z</time>
      </trkpt>
      <trkpt lat="44.45998" lon="6.85326">
        <ele>1921.19</ele>
        <time>2018-04-17T09:47:55.000Z</time>
      </trkpt>
      <trkpt lat="44.45975" lon="6.85329">
        <ele>1916.86</ele>
        <time>2018-04-17T09:47:59.000Z</time>
      </trkpt>
      <trkpt lat="44.45948" lon="6.85339">
        <ele>1911.18</ele>
        <time>2018-04-17T09:48:03.000Z</time>
      </trkpt>
      <trkpt lat="44.45929" lon="6.8534">
        <ele>1905.18</ele>
        <time>2018-04-17T09:48:07.000Z</time>
      </trkpt>
      <trkpt lat="44.45926" lon="6.85307">
        <ele>1900.97</ele>
        <time>2018-04-17T09:48:20.000Z</time>
      </trkpt>
      <trkpt lat="44.45917" lon="6.8528">
        <ele>1900.11</ele>
        <time>2018-04-17T09:48:32.000Z</time>
      </trkpt>
      <trkpt lat="44.45895" lon="6.85272">
        <ele>1889.3</ele>
        <time>2018-04-17T09:50:00.000Z</time>
      </trkpt>
      <trkpt lat="44.45871" lon="6.85269">
        <ele>1881.49</ele>
        <time>2018-04-17T09:50:44.000Z</time>
      </trkpt>
      <trkpt lat="44.4585" lon="6.85259">
        <ele>1879.35</ele>
        <time>2018-04-17T09:50:52.000Z</time>
      </trkpt>
      <trkpt lat="44.45837" lon="6.85233">
        <ele>1868.66</ele>
        <time>2018-04-17T09:53:04.000Z</time>
      </trkpt>
      <trkpt lat="44.45822" lon="6.85217">
        <ele>1866.84</ele>
        <time>2018-04-17T09:53:20.000Z</time>
      </trkpt>
      <trkpt lat="44.45789" lon="6.85225">
        <ele>1863.1</ele>
        <time>2018-04-17T09:53:28.000Z</time>
      </trkpt>
      <trkpt lat="44.45771" lon="6.85246">
        <ele>1856.12</ele>
        <time>2018-04-17T09:55:08.000Z</time>
      </trkpt>
      <trkpt lat="44.45771" lon="6.85273">
        <ele>1850.12</ele>
        <time>2018-04-17T09:56:28.000Z</time>
      </trkpt>
      <trkpt lat="44.45758" lon="6.85291">
        <ele>1846.65</ele>
        <time>2018-04-17T09:57:04.000Z</time>
      </trkpt>
      <trkpt lat="44.4577" lon="6.85312">
        <ele>1834.99</ele>
        <time>2018-04-17T10:04:24.000Z</time>
      </trkpt>
      <trkpt lat="44.4575" lon="6.85328">
        <ele>1823.85</ele>
        <time>2018-04-17T10:05:36.000Z</time>
      </trkpt>
      <trkpt lat="44.45731" lon="6.85337">
        <ele>1796.34</ele>
        <time>2018-04-17T10:06:40.000Z</time>
      </trkpt>
      <trkpt lat="44.45718" lon="6.85358">
        <ele>1784.8</ele>
        <time>2018-04-17T10:07:19.000Z</time>
      </trkpt>
      <trkpt lat="44.45701" lon="6.85378">
        <ele>1767.81</ele>
        <time>2018-04-17T10:08:03.000Z</time>
      </trkpt>
      <trkpt lat="44.45689" lon="6.85357">
        <ele>1765.57</ele>
        <time>2018-04-17T10:08:27.000Z</time>
      </trkpt>
      <trkpt lat="44.45671" lon="6.85343">
        <ele>1765.18</ele>
        <time>2018-04-17T10:08:47.000Z</time>
      </trkpt>
      <trkpt lat="44.4566" lon="6.85321">
        <ele>1763.1</ele>
        <time>2018-04-17T10:09:07.000Z</time>
      </trkpt>
      <trkpt lat="44.45641" lon="6.85309">
        <ele>1758.01</ele>
        <time>2018-04-17T10:09:35.000Z</time>
      </trkpt>
      <trkpt lat="44.45621" lon="6.85302">
        <ele>1755.1</ele>
        <time>2018-04-17T10:09:51.000Z</time>
      </trkpt>
      <trkpt lat="44.45604" lon="6.85294">
        <ele>1751.26</ele>
        <time>2018-04-17T10:10:11.000Z</time>
      </trkpt>
      <trkpt lat="44.45586" lon="6.8528">
        <ele>1748.44</ele>
        <time>2018-04-17T10:10:31.000Z</time>
      </trkpt>
      <trkpt lat="44.45564" lon="6.85297">
        <ele>1744.33</ele>
        <time>2018-04-17T10:11:03.000Z</time>
      </trkpt>
      <trkpt lat="44.45545" lon="6.85298">
        <ele>1741.45</ele>
        <time>2018-04-17T10:11:23.000Z</time>
      </trkpt>
      <trkpt lat="44.45532" lon="6.85279">
        <ele>1739.46</ele>
        <time>2018-04-17T10:11:47.000Z</time>
      </trkpt>
      <trkpt lat="44.45516" lon="6.85267">
        <ele>1738.49</ele>
        <time>2018-04-17T10:12:15.000Z</time>
      </trkpt>
      <trkpt lat="44.45503" lon="6.85246">
        <ele>1736.5</ele>
        <time>2018-04-17T10:12:31.000Z</time>
      </trkpt>
      <trkpt lat="44.45496" lon="6.8522">
        <ele>1733.23</ele>
        <time>2018-04-17T10:12:51.000Z</time>
      </trkpt>
      <trkpt lat="44.45486" lon="6.85197">
        <ele>1731.6</ele>
        <time>2018-04-17T10:13:07.000Z</time>
      </trkpt>
      <trkpt lat="44.45472" lon="6.85175">
        <ele>1730.48</ele>
        <time>2018-04-17T10:13:23.000Z</time>
      </trkpt>
      <trkpt lat="44.45457" lon="6.85154">
        <ele>1728.96</ele>
        <time>2018-04-17T10:13:43.000Z</time>
      </trkpt>
      <trkpt lat="44.45441" lon="6.85141">
        <ele>1727.07</ele>
        <time>2018-04-17T10:13:59.000Z</time>
      </trkpt>
      <trkpt lat="44.4542" lon="6.85131">
        <ele>1723.35</ele>
        <time>2018-04-17T10:14:19.000Z</time>
      </trkpt>
      <trkpt lat="44.45401" lon="6.85124">
        <ele>1719.56</ele>
        <time>2018-04-17T10:14:35.000Z</time>
      </trkpt>
      <trkpt lat="44.4538" lon="6.85117">
        <ele>1715.23</ele>
        <time>2018-04-17T10:14:55.000Z</time>
      </trkpt>
      <trkpt lat="44.45362" lon="6.85112">
        <ele>1712.08</ele>
        <time>2018-04-17T10:15:11.000Z</time>
      </trkpt>
      <trkpt lat="44.45342" lon="6.85106">
        <ele>1708.84</ele>
        <time>2018-04-17T10:15:31.000Z</time>
      </trkpt>
      <trkpt lat="44.45326" lon="6.85088">
        <ele>1706.29</ele>
        <time>2018-04-17T10:15:51.000Z</time>
      </trkpt>
      <trkpt lat="44.4531" lon="6.85065">
        <ele>1705.95</ele>
        <time>2018-04-17T10:16:11.000Z</time>
      </trkpt>
      <trkpt lat="44.45298" lon="6.8504">
        <ele>1705.02</ele>
        <time>2018-04-17T10:16:31.000Z</time>
      </trkpt>
      <trkpt lat="44.45288" lon="6.85017">
        <ele>1703.4</ele>
        <time>2018-04-17T10:16:47.000Z</time>
      </trkpt>
      <trkpt lat="44.45285" lon="6.84989">
        <ele>1701.33</ele>
        <time>2018-04-17T10:17:07.000Z</time>
      </trkpt>
      <trkpt lat="44.45281" lon="6.84959">
        <ele>1699.79</ele>
        <time>2018-04-17T10:17:27.000Z</time>
      </trkpt>
      <trkpt lat="44.45271" lon="6.84936">
        <ele>1698.61</ele>
        <time>2018-04-17T10:17:43.000Z</time>
      </trkpt>
      <trkpt lat="44.4526" lon="6.84915">
        <ele>1696.92</ele>
        <time>2018-04-17T10:17:59.000Z</time>
      </trkpt>
      <trkpt lat="44.45245" lon="6.84897">
        <ele>1695.03</ele>
        <time>2018-04-17T10:18:15.000Z</time>
      </trkpt>
      <trkpt lat="44.45232" lon="6.84873">
        <ele>1692.76</ele>
        <time>2018-04-17T10:18:51.000Z</time>
      </trkpt>
      <trkpt lat="44.45224" lon="6.84851">
        <ele>1686.93</ele>
        <time>2018-04-17T10:19:07.000Z</time>
      </trkpt>
      <trkpt lat="44.4521" lon="6.84835">
        <ele>1684.22</ele>
        <time>2018-04-17T10:19:19.000Z</time>
      </trkpt>
      <trkpt lat="44.45205" lon="6.84806">
        <ele>1679.3</ele>
        <time>2018-04-17T10:19:43.000Z</time>
      </trkpt>
      <trkpt lat="44.45203" lon="6.8478">
        <ele>1679.56</ele>
        <time>2018-04-17T10:20:03.000Z</time>
      </trkpt>
      <trkpt lat="44.45185" lon="6.8477">
        <ele>1680.38</ele>
        <time>2018-04-17T10:20:15.000Z</time>
      </trkpt>
      <trkpt lat="44.45167" lon="6.84754">
        <ele>1678.79</ele>
        <time>2018-04-17T10:20:35.000Z</time>
      </trkpt>
      <trkpt lat="44.45153" lon="6.84734">
        <ele>1676.53</ele>
        <time>2018-04-17T10:20:51.000Z</time>
      </trkpt>
      <trkpt lat="44.45137" lon="6.8471">
        <ele>1676.96</ele>
        <time>2018-04-17T10:21:15.000Z</time>
      </trkpt>
      <trkpt lat="44.4514" lon="6.84685">
        <ele>1677.85</ele>
        <time>2018-04-17T10:21:31.000Z</time>
      </trkpt>
      <trkpt lat="44.45155" lon="6.84662">
        <ele>1678.16</ele>
        <time>2018-04-17T10:21:51.000Z</time>
      </trkpt>
      <trkpt lat="44.45162" lon="6.84638">
        <ele>1676.87</ele>
        <time>2018-04-17T10:22:15.000Z</time>
      </trkpt>
    </trkseg>
  </trk>
</gpx>